createdAt,value
2018-11-28T00:02:59.695Z,41.17
2018-11-28T00:06:12.371Z,47.25
2018-11-28T00:09:27.033Z,48.90
2018-11-28T00:12:43.060Z,39.50
2018-11-28T00:15:56.725Z,45.43
2018-11-28T00:19:10.748Z,59.03
2018-11-28T00:22:25.487Z,45.55
2018-11-28T00:25:40.526Z,39.07
2018-11-28T00:28:53.616Z,42.08
2018-11-28T00:32:07.583Z,44.53
2018-11-28T00:35:22.053Z,44.90
2018-11-28T00:38:35.357Z,40.98
2018-11-28T00:41:49.094Z,47.50
2018-11-28T00:45:05.560Z,46.33
2018-11-28T00:48:19.044Z,46.60
2018-11-28T00:51:37.511Z,39.92
2018-11-28T00:54:57.751Z,42.15
2018-11-28T00:58:12.207Z,41.55
2018-11-28T01:01:26.271Z,38.60
2018-11-28T01:04:41.838Z,40.35
2018-11-28T01:08:01.167Z,40.95
2018-11-28T01:11:15.396Z,39.07
2018-11-28T01:14:28.803Z,35.63
2018-11-28T01:17:44.809Z,47.77
2018-11-28T01:20:59.179Z,39.23
2018-11-28T01:24:12.216Z,37.77
2018-11-28T01:27:25.854Z,37.73
2018-11-28T01:30:40.764Z,38.50
2018-11-28T01:33:54.222Z,40.92
2018-11-28T01:37:05.587Z,43.20
2018-11-28T01:40:22.545Z,38.10
2018-11-28T01:43:33.952Z,39.67
2018-11-28T01:46:45.751Z,44.55
2018-11-28T01:49:58.384Z,37.50
2018-11-28T01:53:09.744Z,38.67
2018-11-28T01:56:21.653Z,38.63
2018-11-28T01:59:33.162Z,34.17
2018-11-28T02:02:44.510Z,34.70
2018-11-28T02:05:56.125Z,41.10
2018-11-28T02:09:09.822Z,34.23
2018-11-28T02:12:21.037Z,37.73
2018-11-28T02:15:32.563Z,43.93
2018-11-28T02:18:44.560Z,40.67
2018-11-28T02:21:56.436Z,44.23
2018-11-28T02:25:09.395Z,34.83
2018-11-28T02:28:20.671Z,39.03
2018-11-28T02:31:32.114Z,39.80
2018-11-28T02:34:43.840Z,36.68
2018-11-28T02:37:55.194Z,34.30
2018-11-28T02:41:06.405Z,38.57
2018-11-28T02:44:17.915Z,35.85
2018-11-28T02:47:29.594Z,33.95
2018-11-28T02:50:41.293Z,37.60
2018-11-28T02:53:52.868Z,32.45
2018-11-28T02:57:04.192Z,39.20
2018-11-28T03:00:25.616Z,38.77
2018-11-28T03:03:37.102Z,34.27
2018-11-28T03:06:48.512Z,43.40
2018-11-28T03:09:59.714Z,43.43
2018-11-28T03:13:11.017Z,40.40
2018-11-28T03:16:22.503Z,46.90
2018-11-28T03:19:33.699Z,42.47
2018-11-28T03:22:45.300Z,36.33
2018-11-28T03:25:57.054Z,39.00
2018-11-28T03:29:08.101Z,41.77
2018-11-28T03:32:20.373Z,34.45
2018-11-28T03:35:32.342Z,36.77
2018-11-28T03:38:43.650Z,35.90
2018-11-28T03:41:55.436Z,40.85
2018-11-28T04:07:19.902Z,37.00
2018-11-28T04:10:32.130Z,38.10
2018-11-28T04:13:43.985Z,43.28
2018-11-28T04:16:55.672Z,37.42
2018-11-28T04:20:11.309Z,34.77
2018-11-28T04:23:23.048Z,34.63
2018-11-28T04:26:34.175Z,35.60
2018-11-28T04:29:45.301Z,37.67
2018-11-28T04:32:56.983Z,34.43
2018-11-28T04:36:08.887Z,37.23
2018-11-28T04:39:19.885Z,38.70
2018-11-28T04:42:31.389Z,35.43
2018-11-28T04:45:42.747Z,40.93
2018-11-28T04:48:54.202Z,37.30
2018-11-28T04:52:06.547Z,39.38
2018-11-28T04:55:19.182Z,40.83
2018-11-28T04:58:30.424Z,36.70
2018-11-28T05:01:42.527Z,34.38
2018-11-28T05:04:53.730Z,34.87
2018-11-28T05:08:05.230Z,37.20
2018-11-28T05:11:17.031Z,34.98
2018-11-28T05:14:29.095Z,36.08
2018-11-28T05:17:41.418Z,37.00
2018-11-28T05:20:53.045Z,36.77
2018-11-28T05:24:04.960Z,35.05
2018-11-28T05:27:16.144Z,33.13
2018-11-28T05:30:30.998Z,37.40
2018-11-28T05:33:42.613Z,37.15
2018-11-28T05:36:54.196Z,36.33
2018-11-28T05:40:08.178Z,37.33
2018-11-28T05:43:19.706Z,37.10
2018-11-28T05:46:31.024Z,38.17
2018-11-28T05:49:42.160Z,36.50
2018-11-28T05:52:53.426Z,34.83
2018-11-28T05:56:05.350Z,39.90
2018-11-28T05:59:16.915Z,32.13
2018-11-28T06:02:28.696Z,38.25
2018-11-28T06:05:42.305Z,33.18
2018-11-28T06:08:53.188Z,33.30
2018-11-28T06:12:05.416Z,35.17
2018-11-28T06:15:17.373Z,37.78
2018-11-28T06:18:29.119Z,36.75
2018-11-28T06:21:40.567Z,33.70
2018-11-28T06:24:52.247Z,33.50
2018-11-28T06:28:04.215Z,35.85
2018-11-28T06:31:15.882Z,32.38
2018-11-28T06:34:27.024Z,34.57
2018-11-28T06:37:38.555Z,40.00
2018-11-28T06:40:50.650Z,37.53
2018-11-28T06:44:02.653Z,37.13
2018-11-28T06:47:14.190Z,35.25
2018-11-28T06:50:26.044Z,32.08
2018-11-28T06:53:38.287Z,33.60
2018-11-28T06:56:49.999Z,38.65
2018-11-28T07:00:01.931Z,33.45
2018-11-28T07:03:13.271Z,33.10
2018-11-28T07:06:24.857Z,38.40
2018-11-28T07:09:36.466Z,29.57
2018-11-28T07:12:48.150Z,29.63
2018-11-28T07:15:59.664Z,33.48
2018-11-28T07:19:12.267Z,33.78
2018-11-28T07:22:23.517Z,36.10
2018-11-28T07:25:35.134Z,33.70
2018-11-28T07:28:47.443Z,35.58
2018-11-28T07:31:58.584Z,32.90
2018-11-28T07:35:15.847Z,32.67
2018-11-28T07:38:26.757Z,29.80
2018-11-28T07:41:38.839Z,33.25
2018-11-28T07:44:50.502Z,37.33
2018-11-28T07:48:01.433Z,35.30
2018-11-28T07:51:13.192Z,32.73
2018-11-28T07:54:24.530Z,30.52
2018-11-28T07:57:35.701Z,33.83
2018-11-28T08:00:47.342Z,29.30
2018-11-28T08:03:59.627Z,34.80
2018-11-28T08:07:11.917Z,31.07
2018-11-28T08:10:24.313Z,34.13
2018-11-28T08:13:36.654Z,37.55
2018-11-28T08:16:48.196Z,34.90
2018-11-28T08:19:59.528Z,30.27
2018-11-28T08:23:11.912Z,33.58
2018-11-28T08:26:23.747Z,36.28
2018-11-28T08:29:35.293Z,35.23
2018-11-28T08:32:46.663Z,34.13
2018-11-28T08:35:57.572Z,36.37
2018-11-28T08:39:10.679Z,30.73
2018-11-28T08:42:22.303Z,32.88
2018-11-28T08:45:34.384Z,30.20
2018-11-28T08:48:45.960Z,32.28
2018-11-28T08:51:57.695Z,33.38
2018-11-28T08:55:12.344Z,32.28
2018-11-28T08:58:23.433Z,28.97
2018-11-28T09:01:35.274Z,35.80
2018-11-28T09:04:46.632Z,36.17
2018-11-28T09:07:58.593Z,33.85
2018-11-28T09:11:10.719Z,33.90
2018-11-28T09:14:21.970Z,28.00
2018-11-28T09:17:33.415Z,29.55
2018-11-28T09:20:45.470Z,30.85
2018-11-28T09:23:56.754Z,30.90
2018-11-28T09:27:09.120Z,34.23
2018-11-28T09:30:22.263Z,34.10
2018-11-28T09:33:33.856Z,33.70
2018-11-28T09:36:45.830Z,30.70
2018-11-28T09:39:56.824Z,28.87
2018-11-28T09:43:09.085Z,30.23
2018-11-28T09:46:20.393Z,31.73
2018-11-28T09:49:32.068Z,30.70
2018-11-28T09:52:43.856Z,30.40
2018-11-28T09:55:54.872Z,32.30
2018-11-28T09:59:06.403Z,29.95
2018-11-28T10:02:18.031Z,29.95
2018-11-28T10:05:33.720Z,30.54
2018-11-28T10:08:45.501Z,34.40
2018-11-28T10:11:57.312Z,35.70
2018-11-28T10:15:20.097Z,29.55
2018-11-28T10:18:32.359Z,33.35
2018-11-28T10:21:44.744Z,28.20
2018-11-28T10:24:56.528Z,35.70
2018-11-28T10:28:09.853Z,27.37
2018-11-28T10:31:20.968Z,31.50
2018-11-28T10:34:33.042Z,26.57
2018-11-28T10:37:44.210Z,25.97
2018-11-28T10:40:56.013Z,30.48
2018-11-28T10:44:07.349Z,28.30
2018-11-28T10:47:18.528Z,31.83
2018-11-28T10:50:30.109Z,28.27
2018-11-28T10:53:42.709Z,27.42
2018-11-28T10:56:54.349Z,27.20
2018-11-28T11:00:14.655Z,29.60
2018-11-28T11:03:32.137Z,28.00
2018-11-28T11:06:49.561Z,24.87
2018-11-28T11:10:05.972Z,26.77
2018-11-28T11:13:22.893Z,27.35
2018-11-28T11:16:34.590Z,27.20
2018-11-28T11:19:46.336Z,30.55
2018-11-28T11:22:57.285Z,26.03
2018-11-28T11:26:08.537Z,26.87
2018-11-28T11:29:19.503Z,28.80
2018-11-28T11:32:31.274Z,26.57
2018-11-28T11:35:42.171Z,34.57
2018-11-28T11:38:54.283Z,31.10
2018-11-28T11:42:06.927Z,27.55
2018-11-28T11:45:18.358Z,31.57
2018-11-28T11:48:30.323Z,26.57
2018-11-28T11:51:42.210Z,29.60
2018-11-28T11:54:53.873Z,28.60
2018-11-28T11:58:05.668Z,27.53
2018-11-28T12:01:18.129Z,28.00
2018-11-28T12:04:30.560Z,29.67
2018-11-28T12:07:42.973Z,34.30
2018-11-28T12:10:55.208Z,26.63
2018-11-28T12:14:07.542Z,28.42
2018-11-28T12:17:18.924Z,31.35
2018-11-28T12:20:34.528Z,29.52
2018-11-28T12:23:45.976Z,26.17
2018-11-28T12:26:58.411Z,29.50
2018-11-28T12:30:14.979Z,32.20
2018-11-28T12:33:27.506Z,27.95
2018-11-28T12:36:40.443Z,28.27
2018-11-28T12:39:52.391Z,24.20
2018-11-28T12:43:06.662Z,24.65
2018-11-28T12:46:17.898Z,25.40
2018-11-28T12:49:28.798Z,26.60
2018-11-28T12:52:40.628Z,25.77
2018-11-28T12:55:52.546Z,25.65
2018-11-28T12:59:04.249Z,22.20
2018-11-28T13:02:17.218Z,26.03
2018-11-28T13:05:29.428Z,24.05
2018-11-28T13:08:40.816Z,23.10
2018-11-28T13:11:52.094Z,23.30
2018-11-28T13:15:04.145Z,24.97
2018-11-28T13:18:15.472Z,23.27
2018-11-28T13:21:26.963Z,22.73
2018-11-28T13:24:39.899Z,27.60
2018-11-28T13:27:51.150Z,22.30
2018-11-28T13:31:02.309Z,22.93
2018-11-28T13:34:13.741Z,23.63
2018-11-28T13:37:25.060Z,23.90
2018-11-28T13:40:36.186Z,26.50
2018-11-28T13:43:47.584Z,21.83
2018-11-28T13:46:59.307Z,24.63
2018-11-28T13:50:12.966Z,22.70
2018-11-28T13:53:26.177Z,24.72
2018-11-28T13:59:50.054Z,20.97
2018-11-28T14:03:01.506Z,25.77
2018-11-28T14:06:13.057Z,25.13
2018-11-28T14:09:24.227Z,26.93
2018-11-28T14:12:35.218Z,27.13
2018-11-28T14:15:46.604Z,23.57
2018-11-28T14:18:57.868Z,23.90
2018-11-28T14:22:09.912Z,22.07
2018-11-28T14:25:22.254Z,22.98
2018-11-28T14:28:34.083Z,23.62
2018-11-28T14:31:46.888Z,24.60
2018-11-28T14:34:58.259Z,23.40
2018-11-28T14:38:10.769Z,23.45
2018-11-28T14:41:23.092Z,25.40
2018-11-28T14:44:34.492Z,22.77
2018-11-28T14:47:47.130Z,25.93
2018-11-28T14:50:59.164Z,26.57
2018-11-28T14:54:10.204Z,25.07
2018-11-28T14:57:21.889Z,26.47
2018-11-28T15:00:33.969Z,26.90
2018-11-28T15:03:45.364Z,25.15
2018-11-28T15:07:01.343Z,30.27
2018-11-28T15:10:15.029Z,29.37
2018-11-28T15:13:26.067Z,31.83
2018-11-28T15:16:38.103Z,31.02
2018-11-28T15:19:49.415Z,31.57
2018-11-28T15:23:01.423Z,40.03
2018-11-28T15:26:12.835Z,33.23
2018-11-28T15:29:24.855Z,30.97
2018-11-28T15:32:36.279Z,28.60
2018-11-28T15:35:48.072Z,30.73
2018-11-28T15:38:58.966Z,29.90
2018-11-28T15:42:10.342Z,27.73
2018-11-28T15:45:21.863Z,26.57
2018-11-28T15:48:35.063Z,27.85
2018-11-28T15:51:46.633Z,28.95
2018-11-28T15:54:58.864Z,27.75
2018-11-28T15:58:11.577Z,26.33
2018-11-28T16:01:23.393Z,28.20
2018-11-28T16:04:35.156Z,32.77
2018-11-28T16:07:46.301Z,33.17
2018-11-28T16:10:57.478Z,26.00
2018-11-28T16:14:09.597Z,25.45
2018-11-28T16:17:21.133Z,31.27
2018-11-28T16:20:32.534Z,28.60
2018-11-28T16:23:43.869Z,30.40
2018-11-28T16:26:55.503Z,25.97
2018-11-28T16:30:12.814Z,29.67
2018-11-28T16:33:24.305Z,32.17
2018-11-28T16:36:35.682Z,26.87
2018-11-28T16:39:47.715Z,31.63
2018-11-28T16:42:58.355Z,31.45
2018-11-28T16:46:09.676Z,28.33
2018-11-28T16:49:20.642Z,28.33
2018-11-28T16:52:32.230Z,30.45
2018-11-28T16:55:44.867Z,29.13
2018-11-28T16:58:56.871Z,31.27
2018-11-28T17:02:08.922Z,29.50
2018-11-28T17:05:27.474Z,28.42
2018-11-28T17:08:40.122Z,32.87
2018-11-28T17:11:51.291Z,27.13
2018-11-28T17:15:07.761Z,28.70
2018-11-28T17:18:18.600Z,32.55
2018-11-28T17:21:30.625Z,31.52
2018-11-28T17:24:41.807Z,30.77
2018-11-28T17:27:53.037Z,26.17
2018-11-28T17:31:05.249Z,31.07
2018-11-28T17:34:16.428Z,36.63
2018-11-28T17:37:27.639Z,27.93
2018-11-28T17:40:39.773Z,29.87
2018-11-28T17:43:52.645Z,29.55
2018-11-28T17:47:04.200Z,31.55
2018-11-28T17:50:20.761Z,28.52
2018-11-28T17:53:31.586Z,27.40
2018-11-28T17:56:43.836Z,35.20
2018-11-28T17:59:54.899Z,29.80
2018-11-28T18:03:07.174Z,30.82
2018-11-28T18:06:18.987Z,26.50
2018-11-28T18:09:52.479Z,29.77
2018-11-28T18:13:12.732Z,31.27
2018-11-28T18:16:23.753Z,30.50
2018-11-28T18:19:36.320Z,31.00
2018-11-28T18:22:48.006Z,35.73
2018-11-28T18:26:00.162Z,32.30
2018-11-28T18:29:11.858Z,32.05
2018-11-28T18:32:23.898Z,34.05
2018-11-28T18:35:35.525Z,33.67
2018-11-28T18:38:47.298Z,29.60
2018-11-28T18:41:58.340Z,29.90
2018-11-28T18:45:29.601Z,28.73
2018-11-28T18:48:41.337Z,34.40
2018-11-28T18:51:53.372Z,27.33
2018-11-28T18:55:05.356Z,27.60
2018-11-28T18:58:16.970Z,31.42
2018-11-28T19:01:28.418Z,29.30
2018-11-28T19:04:40.690Z,29.05
2018-11-28T19:07:52.195Z,30.80
2018-11-28T19:11:04.434Z,29.20
2018-11-28T19:14:16.296Z,27.90
2018-11-28T19:17:27.496Z,27.30
2018-11-28T19:20:39.568Z,26.67
2018-11-28T19:23:50.727Z,28.15
2018-11-28T19:27:02.054Z,27.47
2018-11-28T19:30:21.213Z,25.92
2018-11-28T19:33:33.076Z,28.35
2018-11-28T19:36:44.832Z,27.93
2018-11-28T19:39:56.892Z,24.18
2018-11-28T19:43:08.927Z,27.75
2018-11-28T19:46:20.966Z,30.35
2018-11-28T19:49:32.588Z,26.07
2018-11-28T19:52:43.609Z,24.67
2018-11-28T19:55:54.895Z,30.68
2018-11-28T19:59:06.734Z,24.40
2018-11-28T20:02:18.898Z,25.45
2018-11-28T20:05:30.433Z,28.62
2018-11-28T20:08:41.594Z,25.73
2018-11-28T20:11:53.698Z,28.27
2018-11-28T20:15:08.264Z,29.05
2018-11-28T20:18:19.934Z,24.37
2018-11-28T20:21:30.940Z,29.00
2018-11-28T20:24:42.341Z,26.13
2018-11-28T20:27:55.873Z,25.52
2018-11-28T20:31:07.675Z,31.90
2018-11-28T20:34:19.054Z,23.65
2018-11-28T20:37:30.190Z,23.30
2018-11-28T20:40:41.923Z,24.30
2018-11-28T20:43:54.166Z,25.50
2018-11-28T20:47:07.056Z,31.27
2018-11-28T20:50:23.432Z,27.60
2018-11-28T20:53:34.996Z,27.52
2018-11-28T20:56:46.717Z,24.23
2018-11-28T20:59:57.942Z,26.43
2018-11-28T21:03:10.338Z,29.27
2018-11-28T21:06:21.958Z,25.62
2018-11-28T21:09:33.049Z,25.00
2018-11-28T21:12:45.157Z,25.30
2018-11-28T21:15:57.139Z,27.20
2018-11-28T21:19:09.082Z,26.95
2018-11-28T21:22:20.414Z,25.50
2018-11-28T21:25:31.593Z,27.67
2018-11-28T21:28:43.021Z,27.73
2018-11-28T21:31:54.345Z,27.13
2018-11-28T21:35:14.629Z,26.27
2018-11-28T21:38:26.464Z,25.55
2018-11-28T21:41:38.391Z,23.52
2018-11-28T21:44:49.652Z,26.02
2018-11-28T21:48:00.791Z,28.40
2018-11-28T21:51:12.285Z,26.10
2018-11-28T21:54:23.971Z,29.40
2018-11-28T21:57:34.864Z,26.83
2018-11-28T22:00:46.513Z,25.03
2018-11-28T22:03:57.671Z,23.10
2018-11-28T22:07:08.930Z,23.77
2018-11-28T22:10:23.981Z,24.17
2018-11-28T22:13:36.602Z,23.43
2018-11-28T22:16:47.968Z,24.33
2018-11-28T22:20:00.113Z,22.75
2018-11-28T22:23:11.312Z,23.52
2018-11-28T22:26:23.016Z,25.43
2018-11-28T22:29:34.269Z,24.93
2018-11-28T22:32:45.749Z,22.80
2018-11-28T22:35:57.068Z,24.15
2018-11-28T22:39:10.304Z,26.00
2018-11-28T22:42:21.804Z,21.68
2018-11-28T22:45:36.143Z,20.33
2018-11-28T22:48:49.014Z,25.15
2018-11-28T22:52:01.006Z,24.92
2018-11-28T22:55:15.681Z,24.43
2018-11-28T22:58:26.883Z,20.57
2018-11-28T23:03:46.830Z,22.63
2018-11-28T23:06:58.731Z,22.35
2018-11-28T23:10:10.637Z,21.33
2018-11-28T23:13:26.416Z,21.68
2018-11-28T23:16:38.383Z,23.85
2018-11-28T23:19:50.499Z,22.02
2018-11-28T23:23:02.347Z,22.07
2018-11-28T23:26:13.746Z,24.70
2018-11-28T23:29:24.686Z,22.90
2018-11-28T23:32:36.719Z,24.57
2018-11-28T23:35:48.032Z,20.40
2018-11-28T23:38:59.553Z,24.07
2018-11-28T23:42:10.869Z,24.30
2018-11-28T23:45:22.271Z,22.37
2018-11-28T23:48:34.122Z,25.37
2018-11-28T23:51:45.722Z,23.27
2018-11-28T23:54:56.883Z,22.70
2018-11-28T23:58:08.077Z,20.33
